Time;durP1;ratioP1;P1;durP2;ratioP2;P2;SDS_P1;SDS_P2;PMS_P1;PMS_P2;Temp;Humidity;BMP_temperature;BMP_pressure;BME280_temperature;BME280_humidity;BME280_pressure;Samples;Min_cycle;Max_cycle;Signal;HPM_P1;HPM_P2
2022/03/13 00:02:09;;;;;;;12.40;7.72;;;3.20;76.20;;;;;;5111749;28;20157;-62
2022/03/13 00:04:36;;;;;;;14.55;12.98;;;3.10;76.00;;;;;;5091515;28;20019;-62
2022/03/13 00:07:18;;;;;;;13.10;8.60;;;3.20;76.40;;;;;;5113632;28;20498;-62
2022/03/13 00:09:45;;;;;;;13.63;12.15;;;3.20;76.10;;;;;;5098201;28;20385;-62
2022/03/13 00:12:15;;;;;;;14.30;9.05;;;3.20;76.60;;;;;;5102903;28;20028;-62
2022/03/13 00:14:44;;;;;;;11.90;7.60;;;3.20;76.20;;;;;;5090615;28;20107;-62
2022/03/13 00:17:14;;;;;;;12.32;10.93;;;3.20;76.10;;;;;;5114451;28;20028;-62
2022/03/13 00:19:39;;;;;;;13.43;7.90;;;3.20;76.40;;;;;;5102088;28;20080;-62
2022/03/13 00:22:05;;;;;;;12.48;7.90;;;3.20;76.00;;;;;;5115113;28;20441;-62
2022/03/13 00:24:32;;;;;;;14.00;12.05;;;3.20;76.10;;;;;;5090595;28;20020;-62
2022/03/13 00:27:00;;;;;;;11.55;8.18;;;3.20;76.50;;;;;;5097729;28;20029;-62
2022/03/13 00:29:27;;;;;;;16.80;14.10;;;3.10;76.10;;;;;;5114905;28;20459;-62
2022/03/13 00:31:52;;;;;;;12.73;8.20;;;3.20;76.60;;;;;;5114869;28;20019;-62
2022/03/13 00:34:19;;;;;;;14.20;8.85;;;3.10;76.30;;;;;;5102883;28;20076;-62
2022/03/13 00:36:45;;;;;;;14.32;12.88;;;3.10;76.20;;;;;;5105989;28;20047;-63
2022/03/13 00:39:11;;;;;;;14.10;10.38;;;3.10;76.30;;;;;;5111654;28;20127;-63
2022/03/13 00:41:38;;;;;;;16.02;8.98;;;3.10;76.00;;;;;;5103688;28;20387;-63
2022/03/13 00:44:07;;;;;;;13.25;8.43;;;3.00;75.70;;;;;;5087799;28;20484;-63
2022/03/13 00:46:33;;;;;;;15.48;12.88;;;3.00;75.70;;;;;;5114796;28;20019;-63
2022/03/13 00:49:00;;;;;;;13.68;8.45;;;3.10;76.00;;;;;;5114490;28;20023;-63
2022/03/13 00:51:26;;;;;;;14.48;12.25;;;3.00;75.70;;;;;;5114468;28;20027;-63
2022/03/13 00:53:51;;;;;;;11.35;7.60;;;3.10;75.80;;;;;;5100972;28;20019;-63
2022/03/13 00:56:17;;;;;;;15.02;12.68;;;3.00;75.50;;;;;;5113294;28;20483;-63
2022/03/13 00:58:43;;;;;;;12.27;8.05;;;3.00;75.80;;;;;;5114232;28;20036;-63
2022/03/13 01:01:11;;;;;;;14.60;11.02;;;3.10;75.40;;;;;;5100134;28;20135;-63
2022/03/13 01:03:36;;;;;;;11.63;7.95;;;3.10;75.60;;;;;;5102848;28;20476;-63
2022/03/13 01:06:07;;;;;;;12.10;7.00;;;3.00;75.00;;;;;;5111443;28;20103;-63
2022/03/13 01:08:34;;;;;;;12.02;6.97;;;3.10;75.20;;;;;;5113934;28;20023;-63
2022/03/13 01:11:01;;;;;;;13.90;11.05;;;3.00;75.00;;;;;;5113964;28;20023;-63
2022/03/13 01:13:27;;;;;;;12.13;10.43;;;3.10;75.20;;;;;;5099255;28;20040;-63
2022/03/13 01:16:12;;;;;;;14.15;12.05;;;3.20;75.00;;;;;;5088013;28;20036;-63
2022/03/13 01:18:45;;;;;;;12.88;8.20;;;3.20;74.90;;;;;;5085973;28;20032;-63
2022/03/13 01:21:12;;;;;;;10.65;7.07;;;3.10;74.50;;;;;;5103988;28;20027;-63
2022/03/13 01:23:39;;;;;;;12.18;10.68;;;3.10;74.60;;;;;;5102648;28;20036;-63
2022/03/13 01:26:36;;;;;;;11.30;7.05;;;3.20;74.90;;;;;;5110335;28;20519;-63
2022/03/13 01:29:08;;;;;;;14.13;11.10;;;3.10;74.50;;;;;;5101411;28;20024;-63
2022/03/13 01:31:36;;;;;;;12.90;7.85;;;3.20;75.00;;;;;;5113727;28;20016;-63
2022/03/13 01:34:04;;;;;;;14.52;11.60;;;3.10;74.60;;;;;;5100198;28;20024;-63
2022/03/13 01:36:30;;;;;;;12.65;8.15;;;3.10;75.00;;;;;;5103761;28;20132;-63
2022/03/13 01:38:58;;;;;;;12.48;8.32;;;3.10;74.70;;;;;;5109708;28;20487;-63
2022/03/13 01:41:25;;;;;;;12.35;7.25;;;3.10;74.70;;;;;;5112596;28;20019;-63
2022/03/13 01:43:51;;;;;;;11.63;7.40;;;3.10;74.80;;;;;;5096961;28;20022;-63
2022/03/13 01:46:17;;;;;;;12.93;11.27;;;3.10;75.00;;;;;;5094565;28;20074;-63
2022/03/13 01:49:03;;;;;;;13.98;8.05;;;3.10;75.40;;;;;;5113253;28;20503;-63
2022/03/13 01:51:31;;;;;;;10.95;7.22;;;3.10;75.20;;;;;;5104457;28;20024;-63
2022/03/13 01:53:59;;;;;;;13.77;11.60;;;3.10;75.20;;;;;;5103411;28;20073;-63
2022/03/13 01:56:25;;;;;;;10.77;7.65;;;3.10;75.30;;;;;;5113159;28;20234;-63
2022/03/13 01:58:54;;;;;;;12.63;11.30;;;3.10;74.90;;;;;;5112969;28;20024;-63
2022/03/13 02:01:24;;;;;;;11.00;7.90;;;3.10;75.20;;;;;;5106440;28;20468;-63
2022/03/13 02:03:50;;;;;;;12.18;10.73;;;3.00;75.00;;;;;;5105763;28;20102;-63
2022/03/13 02:06:17;;;;;;;8.77;6.65;;;3.10;75.30;;;;;;5112947;28;20097;-63
2022/03/13 02:08:45;;;;;;;12.85;10.45;;;3.00;75.10;;;;;;5096868;28;20024;-63
2022/03/13 02:11:16;;;;;;;9.02;6.63;;;3.10;75.10;;;;;;5100107;28;20115;-63
2022/03/13 02:13:43;;;;;;;9.32;6.07;;;3.00;74.80;;;;;;5097052;28;20032;-63
2022/03/13 02:16:09;;;;;;;11.77;9.77;;;2.90;74.70;;;;;;5111759;28;20026;-63
2022/03/13 02:18:35;;;;;;;8.70;5.97;;;3.00;75.00;;;;;;5112617;28;20120;-63
2022/03/13 02:21:01;;;;;;;12.25;9.50;;;2.90;74.70;;;;;;5108990;28;20029;-63
2022/03/13 02:23:29;;;;;;;10.80;9.25;;;2.90;74.90;;;;;;5100994;28;20032;-63
2022/03/13 02:26:01;;;;;;;10.55;6.30;;;2.90;74.70;;;;;;5096072;28;20392;-63
2022/03/13 02:28:32;;;;;;;10.23;9.13;;;2.90;74.40;;;;;;5103974;28;20691;-63
2022/03/13 02:31:03;;;;;;;10.65;7.10;;;2.90;74.50;;;;;;5109136;28;20472;-63
2022/03/13 02:33:29;;;;;;;9.23;5.22;;;2.90;74.40;;;;;;5090644;28;20026;-63
2022/03/13 02:35:57;;;;;;;10.00;9.00;;;2.80;74.30;;;;;;5112193;28;20479;-63
2022/03/13 02:38:25;;;;;;;10.20;6.88;;;2.80;74.60;;;;;;5108325;28;20040;-63
2022/03/13 02:40:52;;;;;;;10.52;9.10;;;2.80;74.40;;;;;;5100417;28;20024;-63
2022/03/13 02:43:17;;;;;;;10.48;9.20;;;2.80;74.80;;;;;;5086591;28;20077;-63
2022/03/13 02:45:43;;;;;;;10.30;9.23;;;2.80;74.70;;;;;;5100755;28;20464;-63
2022/03/13 02:48:11;;;;;;;9.90;6.13;;;2.90;74.90;;;;;;5106796;28;21128;-63
2022/03/13 02:50:38;;;;;;;10.50;9.32;;;2.80;74.60;;;;;;5110568;28;20065;-63
2022/03/13 02:53:05;;;;;;;8.75;5.97;;;2.80;75.00;;;;;;5096904;28;20023;-63
2022/03/13 02:55:31;;;;;;;9.30;6.03;;;2.80;74.70;;;;;;5111661;28;20106;-63
2022/03/13 02:57:57;;;;;;;10.30;9.07;;;2.70;74.80;;;;;;5111032;28;20027;-63
2022/03/13 03:00:46;;;;;;;8.07;5.47;;;2.80;75.20;;;;;;5105670;28;20023;-63
2022/03/13 03:03:20;;;;;;;10.70;8.32;;;2.70;74.90;;;;;;5098953;28;20030;-63
2022/03/13 03:05:46;;;;;;;11.63;9.05;;;2.70;75.30;;;;;;5112043;28;20027;-63
2022/03/13 03:08:13;;;;;;;11.43;9.25;;;2.70;75.10;;;;;;5112027;28;20015;-63
2022/03/13 03:10:39;;;;;;;11.05;8.88;;;2.80;75.10;;;;;;5109419;28;20024;-63
2022/03/13 03:13:07;;;;;;;11.90;9.80;;;2.80;74.90;;;;;;5097295;28;20024;-63
2022/03/13 03:15:33;;;;;;;9.93;5.88;;;2.90;74.90;;;;;;5110966;28;20102;-63
2022/03/13 03:17:59;;;;;;;10.73;8.20;;;2.80;74.70;;;;;;5107965;28;20487;-63
2022/03/13 03:20:25;;;;;;;10.48;5.93;;;2.90;74.80;;;;;;5110071;28;20036;-63
2022/03/13 03:22:52;;;;;;;8.82;6.22;;;2.80;74.50;;;;;;5096448;28;20020;-63
2022/03/13 03:25:24;;;;;;;10.45;5.40;;;2.80;74.50;;;;;;5090026;28;20026;-66
2022/03/13 03:27:55;;;;;;;10.40;9.23;;;2.80;75.00;;;;;;5101917;28;20020;-64
2022/03/13 03:30:22;;;;;;;12.40;6.75;;;2.80;74.60;;;;;;5114908;28;20028;-65
2022/03/13 03:32:49;;;;;;;10.18;8.93;;;2.80;74.50;;;;;;5087915;28;20131;-63
2022/03/13 03:35:19;;;;;;;12.15;9.75;;;2.90;74.80;;;;;;5090485;28;20028;-63
2022/03/13 03:37:49;;;;;;;9.50;6.43;;;2.90;74.70;;;;;;5113550;28;20039;-64
2022/03/13 03:40:15;;;;;;;10.20;8.60;;;2.90;74.60;;;;;;5104606;28;20038;-63
2022/03/13 03:42:43;;;;;;;11.10;9.15;;;2.90;74.90;;;;;;5093903;28;20107;-63
2022/03/13 03:45:09;;;;;;;9.40;6.60;;;2.90;74.70;;;;;;5115594;28;20012;-63
2022/03/13 03:47:36;;;;;;;10.35;9.27;;;2.90;74.60;;;;;;5115560;28;20445;-65
2022/03/13 03:50:03;;;;;;;12.35;9.57;;;2.90;74.90;;;;;;5104917;28;20032;-63
2022/03/13 03:52:28;;;;;;;10.80;9.18;;;3.00;74.90;;;;;;5080477;28;20033;-63
2022/03/13 03:54:54;;;;;;;9.70;8.73;;;3.00;75.00;;;;;;5086504;28;20027;-63
2022/03/13 03:57:20;;;;;;;10.98;6.65;;;2.90;74.90;;;;;;5115502;28;20023;-63
2022/03/13 03:59:46;;;;;;;10.50;8.30;;;2.90;74.70;;;;;;5115688;28;20102;-63
2022/03/13 04:02:12;;;;;;;9.93;8.70;;;2.90;74.80;;;;;;5099578;28;20116;-63
2022/03/13 04:04:39;;;;;;;9.52;8.55;;;2.90;74.80;;;;;;5106241;28;20023;-63
2022/03/13 04:07:05;;;;;;;10.35;8.23;;;3.00;74.70;;;;;;5109861;28;20024;-63
2022/03/13 04:09:31;;;;;;;12.07;9.13;;;3.00;74.70;;;;;;5104207;28;20063;-63
2022/03/13 04:11:57;;;;;;;12.50;8.95;;;2.90;74.60;;;;;;5079713;28;20773;-63
2022/03/13 04:14:23;;;;;;;10.63;8.70;;;2.90;74.60;;;;;;5079370;28;20488;-63
2022/03/13 04:16:51;;;;;;;11.48;8.52;;;2.90;74.50;;;;;;5111787;28;20072;-63
2022/03/13 04:19:19;;;;;;;7.82;5.55;;;2.90;74.60;;;;;;5114829;28;20027;-63
2022/03/13 04:21:45;;;;;;;9.98;8.13;;;2.80;74.50;;;;;;5114955;28;20023;-63
2022/03/13 04:24:12;;;;;;;9.90;8.60;;;2.80;74.80;;;;;;5101731;28;20183;-63
2022/03/13 04:26:41;;;;;;;8.88;5.68;;;2.80;74.80;;;;;;5107153;28;20028;-63
2022/03/13 04:29:09;;;;;;;11.43;6.55;;;2.80;74.70;;;;;;5107059;28;20043;-63
2022/03/13 04:31:39;;;;;;;9.13;8.18;;;2.70;74.80;;;;;;5114762;28;20047;-63
2022/03/13 04:34:05;;;;;;;8.20;5.88;;;2.80;75.10;;;;;;5107870;28;20028;-63
2022/03/13 04:36:33;;;;;;;10.32;8.60;;;2.70;74.70;;;;;;5107125;28;20039;-63
2022/03/13 04:38:59;;;;;;;12.25;6.53;;;2.80;75.00;;;;;;5100971;28;20031;-63
2022/03/13 04:41:25;;;;;;;8.93;5.63;;;2.80;74.60;;;;;;5103055;28;20465;-63
2022/03/13 04:43:53;;;;;;;9.30;8.30;;;2.70;74.80;;;;;;5089862;28;20044;-63
2022/03/13 04:46:19;;;;;;;9.93;6.30;;;2.80;75.60;;;;;;5110112;28;20027;-63
2022/03/13 04:48:45;;;;;;;11.30;8.88;;;2.80;75.20;;;;;;5114507;27;20077;-63
2022/03/13 04:51:11;;;;;;;11.00;8.88;;;2.90;74.80;;;;;;5114322;28;20028;-63
2022/03/13 04:53:37;;;;;;;11.75;9.98;;;2.90;74.80;;;;;;5111716;28;20419;-63
2022/03/13 04:56:03;;;;;;;8.88;6.03;;;3.00;74.80;;;;;;5106847;28;20024;-63
2022/03/13 04:58:29;;;;;;;11.07;9.25;;;2.90;74.60;;;;;;5104372;28;20096;-63
2022/03/13 05:00:55;;;;;;;11.55;9.98;;;2.90;74.80;;;;;;5114187;28;20147;-63
2022/03/13 05:03:21;;;;;;;10.93;9.82;;;3.00;74.80;;;;;;5114149;28;20019;-63
2022/03/13 05:05:47;;;;;;;9.00;5.85;;;3.10;74.70;;;;;;5093994;28;20055;-63
2022/03/13 05:08:15;;;;;;;11.07;9.32;;;3.00;74.50;;;;;;5112415;28;20069;-63
2022/03/13 05:10:46;;;;;;;8.85;6.50;;;3.00;75.00;;;;;;5089000;28;20096;-63
2022/03/13 05:13:14;;;;;;;11.48;9.18;;;3.00;74.70;;;;;;5113998;28;20479;-63
2022/03/13 05:15:42;;;;;;;12.77;9.60;;;3.00;74.90;;;;;;5096867;28;20035;-63
2022/03/13 05:18:09;;;;;;;12.13;7.20;;;3.10;75.00;;;;;;5094308;28;20027;-63
2022/03/13 05:20:35;;;;;;;8.85;5.70;;;3.00;74.80;;;;;;5113673;28;20441;-63
2022/03/13 05:23:07;;;;;;;11.40;9.70;;;3.00;75.00;;;;;;5113764;28;20051;-63
2022/03/13 05:25:37;;;;;;;10.02;6.63;;;3.00;75.20;;;;;;5089312;28;20042;-63
2022/03/13 05:28:04;;;;;;;12.27;9.80;;;3.00;75.00;;;;;;5102110;28;20056;-63
2022/03/13 05:30:30;;;;;;;12.35;10.15;;;3.10;75.40;;;;;;5113526;28;20020;-63
2022/03/13 05:32:56;;;;;;;10.95;6.55;;;3.20;75.30;;;;;;5094361;28;20100;-63
2022/03/13 05:35:23;;;;;;;10.73;6.50;;;3.20;74.90;;;;;;5092753;28;20020;-63
2022/03/13 05:37:48;;;;;;;10.75;9.63;;;3.10;74.90;;;;;;5106810;28;20040;-63
2022/03/13 05:40:16;;;;;;;11.20;9.60;;;3.20;75.00;;;;;;5105299;28;20106;-63
2022/03/13 05:42:44;;;;;;;11.45;6.85;;;3.30;74.90;;;;;;5113459;28;20023;-63
2022/03/13 05:45:20;;;;;;;11.13;9.38;;;3.20;74.70;;;;;;5094787;28;20036;-63
2022/03/13 05:47:51;;;;;;;11.20;6.60;;;3.20;75.10;;;;;;5111701;28;20031;-63
2022/03/13 05:50:18;;;;;;;8.70;4.93;;;3.20;74.80;;;;;;5099721;28;20025;-63
2022/03/13 05:52:46;;;;;;;11.30;9.35;;;3.20;74.90;;;;;;5112358;28;20252;-63
2022/03/13 05:55:13;;;;;;;7.90;5.53;;;3.20;75.00;;;;;;5102860;28;20031;-63
2022/03/13 05:57:39;;;;;;;10.60;9.20;;;3.20;74.90;;;;;;5109310;28;20449;-63
2022/03/13 06:00:07;;;;;;;10.45;8.82;;;3.30;75.10;;;;;;5111195;28;20028;-63
2022/03/13 06:02:33;;;;;;;11.48;9.63;;;3.40;74.80;;;;;;5105866;27;20021;-63
2022/03/13 06:04:59;;;;;;;10.05;8.70;;;3.40;74.50;;;;;;5103818;28;20024;-63
2022/03/13 06:07:24;;;;;;;9.73;5.95;;;3.40;74.30;;;;;;5081798;28;20024;-63
2022/03/13 06:09:51;;;;;;;9.90;8.18;;;3.40;74.20;;;;;;5094705;28;20027;-63
2022/03/13 06:12:17;;;;;;;11.65;6.70;;;3.50;74.20;;;;;;5101421;28;20066;-63
2022/03/13 06:14:43;;;;;;;9.48;8.43;;;3.50;74.00;;;;;;5105523;28;20116;-63
2022/03/13 06:17:09;;;;;;;8.50;6.13;;;3.60;74.00;;;;;;5092953;28;20020;-63
2022/03/13 06:19:39;;;;;;;7.78;5.35;;;3.60;73.70;;;;;;5111255;28;20123;-63
2022/03/13 06:22:05;;;;;;;9.50;7.90;;;3.60;73.60;;;;;;5110965;28;20477;-63
2022/03/13 06:24:32;;;;;;;9.48;5.55;;;3.70;73.60;;;;;;5083425;28;20051;-63
2022/03/13 06:26:58;;;;;;;8.40;5.60;;;3.60;73.40;;;;;;5085443;28;20375;-63
2022/03/13 06:29:24;;;;;;;8.85;7.18;;;3.60;73.30;;;;;;5107705;28;20024;-63
2022/03/13 06:31:51;;;;;;;7.03;5.40;;;3.60;72.90;;;;;;5111848;28;20027;-63
2022/03/13 06:34:17;;;;;;;8.55;7.32;;;3.60;72.60;;;;;;5112511;28;20123;-63
2022/03/13 06:36:43;;;;;;;7.65;5.53;;;3.70;72.90;;;;;;5083595;28;20126;-63
2022/03/13 06:39:08;;;;;;;7.97;4.63;;;3.60;72.60;;;;;;5098360;28;20122;-63
2022/03/13 06:41:34;;;;;;;9.07;7.93;;;3.60;72.70;;;;;;5106285;28;20027;-63
2022/03/13 06:44:00;;;;;;;7.68;5.38;;;3.60;72.70;;;;;;5112402;28;20020;-63
2022/03/13 06:46:26;;;;;;;11.02;8.27;;;3.60;72.50;;;;;;5100001;28;20034;-63
2022/03/13 06:48:52;;;;;;;7.78;5.93;;;3.60;72.60;;;;;;5112168;28;20074;-63
2022/03/13 06:51:18;;;;;;;9.57;7.57;;;3.60;72.60;;;;;;5112556;28;20433;-63
2022/03/13 06:53:43;;;;;;;7.20;5.30;;;3.60;72.60;;;;;;5112362;28;20028;-63
2022/03/13 06:56:09;;;;;;;7.93;6.88;;;3.60;72.40;;;;;;5085498;28;20052;-63
2022/03/13 06:58:35;;;;;;;10.10;5.45;;;3.70;72.50;;;;;;5096242;28;20480;-63
2022/03/13 07:01:01;;;;;;;7.60;6.50;;;3.70;72.20;;;;;;5112254;28;20036;-63
2022/03/13 07:03:26;;;;;;;8.70;7.47;;;3.80;72.10;;;;;;5111523;28;20028;-63
2022/03/13 07:05:52;;;;;;;7.78;5.88;;;3.80;71.80;;;;;;5098573;28;20023;-63
2022/03/13 07:08:18;;;;;;;9.05;8.07;;;3.80;71.80;;;;;;5103857;28;20351;-63
2022/03/13 07:10:44;;;;;;;8.73;5.65;;;3.80;71.90;;;;;;5112013;28;20156;-63
2022/03/13 07:13:10;;;;;;;8.50;7.10;;;3.80;71.70;;;;;;5111928;28;20403;-63
2022/03/13 07:15:36;;;;;;;8.18;5.65;;;3.90;72.30;;;;;;5095925;28;20080;-63
2022/03/13 07:18:02;;;;;;;8.30;7.20;;;3.90;71.60;;;;;;5107098;28;20051;-63
2022/03/13 07:20:28;;;;;;;7.82;4.90;;;3.90;71.20;;;;;;5112031;28;20120;-63
2022/03/13 07:22:54;;;;;;;6.13;4.18;;;3.90;71.10;;;;;;5111609;28;20020;-63
2022/03/13 07:25:20;;;;;;;7.32;6.38;;;3.90;70.90;;;;;;5104571;28;20020;-63
2022/03/13 07:27:45;;;;;;;8.85;5.47;;;4.00;70.50;;;;;;5091979;28;20031;-63
2022/03/13 07:30:13;;;;;;;9.15;6.22;;;4.00;70.10;;;;;;5111196;28;20023;-63
2022/03/13 07:32:40;;;;;;;6.70;5.05;;;4.10;69.90;;;;;;5104112;28;20023;-63
2022/03/13 07:35:07;;;;;;;9.13;6.70;;;4.00;69.80;;;;;;5098846;28;20074;-63
2022/03/13 07:37:33;;;;;;;8.80;5.07;;;4.00;69.80;;;;;;5081096;28;20043;-63
2022/03/13 07:39:59;;;;;;;6.57;4.47;;;4.00;69.90;;;;;;5108508;28;20391;-63
2022/03/13 07:42:24;;;;;;;6.68;5.95;;;4.00;70.20;;;;;;5111419;28;20047;-63
2022/03/13 07:44:50;;;;;;;8.15;6.55;;;4.10;69.80;;;;;;5108243;28;20102;-63
2022/03/13 07:47:16;;;;;;;7.43;4.90;;;4.20;69.30;;;;;;5098866;28;20031;-63
2022/03/13 07:49:42;;;;;;;7.13;4.60;;;4.10;69.90;;;;;;5108210;28;20028;-63
2022/03/13 07:52:08;;;;;;;8.52;6.45;;;4.10;69.30;;;;;;5111099;28;20110;-63
2022/03/13 07:54:34;;;;;;;8.23;4.68;;;4.20;69.10;;;;;;5111449;28;20020;-63
2022/03/13 07:57:00;;;;;;;8.13;6.78;;;4.10;68.90;;;;;;5087612;28;20024;-63
2022/03/13 07:59:26;;;;;;;7.57;4.78;;;4.20;69.00;;;;;;5111419;28;20031;-63
2022/03/13 08:01:52;;;;;;;8.20;6.50;;;4.10;68.90;;;;;;5111669;28;20020;-63
2022/03/13 08:04:17;;;;;;;8.45;4.20;;;4.20;68.60;;;;;;5111649;28;20016;-63
2022/03/13 08:06:44;;;;;;;9.55;7.03;;;4.20;68.60;;;;;;5095955;28;20019;-63
2022/03/13 08:09:11;;;;;;;7.97;4.80;;;4.20;68.60;;;;;;5111428;28;20019;-63
2022/03/13 08:11:38;;;;;;;8.13;4.90;;;4.30;68.70;;;;;;5106640;28;20032;-63
2022/03/13 08:14:07;;;;;;;8.55;6.35;;;4.20;68.70;;;;;;5103477;28;20027;-63
2022/03/13 08:16:34;;;;;;;7.32;4.60;;;4.20;68.50;;;;;;5090555;28;20054;-63
2022/03/13 08:19:00;;;;;;;6.70;6.05;;;4.20;68.30;;;;;;5114994;28;20027;-63
2022/03/13 08:21:26;;;;;;;7.88;4.90;;;4.30;68.50;;;;;;5114997;28;20174;-63
2022/03/13 08:23:52;;;;;;;5.57;4.25;;;4.30;68.40;;;;;;5100112;28;20038;-63
2022/03/13 08:26:19;;;;;;;9.60;7.03;;;4.30;68.40;;;;;;5100664;28;20099;-63
2022/03/13 08:28:45;;;;;;;9.25;6.95;;;4.30;68.20;;;;;;5114485;28;20364;-63
2022/03/13 08:31:11;;;;;;;8.68;5.47;;;4.50;67.80;;;;;;5114658;28;20095;-63
2022/03/13 08:33:37;;;;;;;6.97;4.50;;;4.40;67.70;;;;;;5114756;28;20098;-63
2022/03/13 08:36:04;;;;;;;6.82;5.60;;;4.40;67.90;;;;;;5102597;28;20455;-63
2022/03/13 08:38:30;;;;;;;8.20;4.75;;;4.50;67.60;;;;;;5108597;28;20027;-63
2022/03/13 08:40:56;;;;;;;8.90;5.03;;;4.50;67.30;;;;;;5092568;28;20077;-63
2022/03/13 08:43:22;;;;;;;8.85;6.75;;;4.40;67.70;;;;;;5114628;28;20391;-63
2022/03/13 08:45:48;;;;;;;5.63;4.75;;;4.50;67.40;;;;;;5105200;28;20103;-63
2022/03/13 08:48:14;;;;;;;7.55;6.53;;;4.50;67.50;;;;;;5109331;28;20024;-63
2022/03/13 08:50:40;;;;;;;7.47;6.15;;;4.60;67.00;;;;;;5114701;28;20391;-63
2022/03/13 08:53:07;;;;;;;7.97;4.95;;;4.70;66.80;;;;;;5113375;28;20383;-63
2022/03/13 08:55:33;;;;;;;7.30;4.70;;;4.60;66.70;;;;;;5107925;28;20491;-63
2022/03/13 08:57:59;;;;;;;8.48;6.43;;;4.60;66.90;;;;;;5107633;28;20404;-63
2022/03/13 09:00:25;;;;;;;7.72;5.13;;;4.70;66.90;;;;;;5114147;28;20112;-63
2022/03/13 09:02:53;;;;;;;7.25;4.30;;;4.60;66.70;;;;;;5114158;28;20365;-63
2022/03/13 09:05:19;;;;;;;7.57;6.63;;;4.60;66.80;;;;;;5106116;28;20024;-63
2022/03/13 09:07:45;;;;;;;8.07;6.68;;;4.70;66.70;;;;;;5098085;28;20020;-63
2022/03/13 09:10:11;;;;;;;8.50;4.93;;;4.80;66.20;;;;;;5114064;28;20031;-63
2022/03/13 09:12:38;;;;;;;7.45;6.15;;;4.80;66.10;;;;;;5114070;28;20114;-63
2022/03/13 09:15:06;;;;;;;7.47;4.95;;;4.80;66.20;;;;;;5106617;28;20027;-63
2022/03/13 09:17:32;;;;;;;9.90;5.28;;;4.80;66.10;;;;;;5091634;28;20428;-63
2022/03/13 09:19:58;;;;;;;8.70;6.30;;;4.80;66.40;;;;;;5100988;28;20036;-63
2022/03/13 09:22:30;;;;;;;8.50;6.50;;;4.90;66.10;;;;;;5113935;28;20031;-63
2022/03/13 09:24:57;;;;;;;9.05;4.75;;;5.00;65.50;;;;;;5111874;28;20071;-63
2022/03/13 09:27:25;;;;;;;8.88;6.38;;;4.90;65.50;;;;;;5100660;28;20115;-63
2022/03/13 09:29:51;;;;;;;7.70;6.07;;;5.00;65.50;;;;;;5102859;28;20032;-63
2022/03/13 09:32:16;;;;;;;6.60;4.78;;;5.00;65.10;;;;;;5083700;28;20076;-63
2022/03/13 09:34:42;;;;;;;6.97;4.55;;;5.00;65.20;;;;;;5108184;28;20515;-63
2022/03/13 09:37:08;;;;;;;9.15;7.13;;;5.00;65.60;;;;;;5094584;28;20044;-63
2022/03/13 09:39:36;;;;;;;8.57;5.10;;;5.00;65.60;;;;;;5111538;28;20028;-63
2022/03/13 09:42:01;;;;;;;8.80;6.90;;;5.00;65.50;;;;;;5112268;28;20103;-63
2022/03/13 09:44:28;;;;;;;7.95;6.65;;;5.00;65.60;;;;;;5113399;28;20102;-63
2022/03/13 09:46:54;;;;;;;10.63;5.10;;;5.10;65.60;;;;;;5096114;28;20043;-63
2022/03/13 09:49:21;;;;;;;7.60;5.72;;;5.10;65.50;;;;;;5090352;28;20085;-63
2022/03/13 09:51:47;;;;;;;8.90;6.78;;;5.10;65.30;;;;;;5113203;28;20039;-63
2022/03/13 09:54:13;;;;;;;7.35;4.68;;;5.20;64.90;;;;;;5113226;28;20383;-63
2022/03/13 09:56:39;;;;;;;7.65;4.25;;;5.20;64.90;;;;;;5087611;28;20040;-62
2022/03/13 09:59:04;;;;;;;8.35;6.00;;;5.10;65.10;;;;;;5113191;28;20059;-63
2022/03/13 10:01:31;;;;;;;9.48;6.82;;;5.20;65.20;;;;;;5112961;28;20023;-63
2022/03/13 10:03:56;;;;;;;9.25;6.80;;;5.20;64.80;;;;;;5108911;28;20034;-63
2022/03/13 10:06:23;;;;;;;8.93;5.00;;;5.30;64.50;;;;;;5075562;28;20021;-61
2022/03/13 10:08:48;;;;;;;8.48;6.90;;;5.20;64.50;;;;;;5108626;28;20054;-63
2022/03/13 10:11:15;;;;;;;8.20;6.75;;;5.20;64.70;;;;;;5112843;28;20043;-63
2022/03/13 10:13:46;;;;;;;8.80;4.40;;;5.20;64.60;;;;;;5112840;28;20016;-63
2022/03/13 10:16:22;;;;;;;8.68;4.97;;;5.10;64.80;;;;;;5094740;28;20021;-63
2022/03/13 10:18:48;;;;;;;7.63;4.90;;;5.00;65.10;;;;;;5109699;28;20395;-63
2022/03/13 10:21:19;;;;;;;7.57;6.22;;;5.00;65.20;;;;;;5103106;28;20021;-63
2022/03/13 10:23:48;;;;;;;8.77;4.53;;;5.10;65.20;;;;;;5106849;28;20456;-63
2022/03/13 10:26:16;;;;;;;5.97;4.25;;;5.00;65.10;;;;;;5086797;28;20511;-62
2022/03/13 10:28:43;;;;;;;7.80;6.28;;;5.00;65.20;;;;;;5081156;28;20164;-63
2022/03/13 10:31:16;;;;;;;7.10;4.78;;;5.10;65.00;;;;;;5095637;28;20028;-63
2022/03/13 10:33:42;;;;;;;7.30;5.80;;;5.00;64.70;;;;;;5080809;28;20029;-62
2022/03/13 10:36:24;;;;;;;8.30;6.13;;;5.10;64.90;;;;;;5094168;28;20352;-61
2022/03/13 10:38:50;;;;;;;8.75;4.68;;;5.10;64.50;;;;;;5093790;28;20024;-63
2022/03/13 10:41:20;;;;;;;7.88;6.07;;;5.10;64.70;;;;;;5084600;28;20055;-63
2022/03/13 10:43:52;;;;;;;8.10;6.07;;;5.10;64.70;;;;;;5111056;28;20084;-64
2022/03/13 10:46:29;;;;;;;6.35;4.72;;;5.20;64.10;;;;;;5107357;28;20065;-63
2022/03/13 10:48:56;;;;;;;7.15;5.80;;;5.10;64.30;;;;;;5084346;28;20025;-61
2022/03/13 10:51:36;;;;;;;8.02;6.43;;;5.20;64.20;;;;;;5112465;28;20466;-63
2022/03/13 10:54:03;;;;;;;7.40;4.53;;;5.20;63.90;;;;;;5111974;28;20047;-63
2022/03/13 10:56:29;;;;;;;9.05;6.53;;;5.10;64.10;;;;;;5093223;28;20020;-63
2022/03/13 10:58:56;;;;;;;9.25;5.15;;;5.20;64.10;;;;;;5107845;28;20037;-63
2022/03/13 11:01:23;;;;;;;8.40;6.30;;;5.20;64.00;;;;;;5112212;28;20032;-63
2022/03/13 11:03:57;;;;;;;9.20;7.15;;;5.20;64.30;;;;;;5112026;28;20022;-63
2022/03/13 11:06:25;;;;;;;7.40;4.93;;;5.30;64.20;;;;;;5089846;28;20060;-63
2022/03/13 11:08:55;;;;;;;7.65;4.57;;;5.20;64.10;;;;;;5107291;28;20107;-63
2022/03/13 11:11:27;;;;;;;9.05;7.13;;;5.10;64.30;;;;;;5111620;28;20090;-62
2022/03/13 11:13:56;;;;;;;8.18;6.60;;;5.20;64.30;;;;;;5085658;28;20019;-63
2022/03/13 11:16:30;;;;;;;6.25;4.40;;;5.20;64.20;;;;;;5104296;28;20021;-63
2022/03/13 11:19:04;;;;;;;9.15;6.60;;;5.10;64.30;;;;;;5105937;28;20046;-63
2022/03/13 11:21:30;;;;;;;9.70;4.68;;;5.10;64.40;;;;;;5111642;28;20012;-63
2022/03/13 11:23:57;;;;;;;8.52;6.32;;;5.00;64.50;;;;;;5109779;28;20028;-63
2022/03/13 11:26:29;;;;;;;5.38;4.22;;;4.90;64.60;;;;;;5098358;28;20074;-63
2022/03/13 11:28:56;;;;;;;8.23;6.90;;;4.80;64.50;;;;;;5101474;28;20024;-63
2022/03/13 11:31:32;;;;;;;8.82;5.07;;;4.80;64.90;;;;;;5093955;28;20026;-63
2022/03/13 11:34:18;;;;;;;6.78;4.50;;;4.80;64.90;;;;;;5109738;28;20376;-63
2022/03/13 11:36:49;;;;;;;7.15;5.97;;;4.70;65.20;;;;;;5083559;28;20049;-63
2022/03/13 11:39:31;;;;;;;8.85;6.40;;;4.80;65.30;;;;;;5108750;28;20034;-63
2022/03/13 11:41:58;;;;;;;8.70;6.78;;;4.80;64.70;;;;;;5112140;28;20099;-63
2022/03/13 11:44:25;;;;;;;9.18;4.72;;;4.90;64.70;;;;;;5111805;28;20027;-63
2022/03/13 11:46:53;;;;;;;9.00;6.60;;;4.80;64.70;;;;;;5099782;28;20430;-61
2022/03/13 11:49:33;;;;;;;8.15;6.18;;;4.80;64.90;;;;;;5110965;28;20388;-61
2022/03/13 11:52:08;;;;;;;9.77;5.25;;;4.90;64.80;;;;;;5115724;28;20391;-61
2022/03/13 11:54:52;;;;;;;8.95;7.68;;;4.80;64.80;;;;;;5115589;28;20514;-63
2022/03/13 11:57:18;;;;;;;11.73;6.00;;;4.90;65.00;;;;;;5089768;28;20111;-63
2022/03/13 11:59:49;;;;;;;10.35;7.20;;;4.80;65.00;;;;;;5115342;28;20027;-63
2022/03/13 12:02:42;;;;;;;8.55;5.10;;;4.80;65.10;;;;;;5115486;28;20038;-63
2022/03/13 12:05:30;;;;;;;7.40;6.43;;;4.80;65.10;;;;;;5092494;28;20531;-63
2022/03/13 12:07:56;;;;;;;11.85;6.03;;;4.80;65.10;;;;;;5081037;28;20031;-63
2022/03/13 12:10:35;;;;;;;10.20;7.82;;;4.80;65.10;;;;;;5097592;28;20088;-63
2022/03/13 12:13:08;;;;;;;9.82;5.00;;;4.80;65.40;;;;;;5115208;28;20027;-63
2022/03/13 12:15:35;;;;;;;8.32;6.45;;;4.70;65.30;;;;;;5115236;28;20100;-63
2022/03/13 12:18:28;;;;;;;8.25;5.90;;;4.80;65.40;;;;;;5088900;28;20032;-63
2022/03/13 12:21:08;;;;;;;7.82;6.32;;;4.80;66.00;;;;;;5102656;28;20024;-63
2022/03/13 12:23:36;;;;;;;8.85;6.78;;;4.80;65.40;;;;;;5115098;28;20020;-64
2022/03/13 12:26:26;;;;;;;7.53;5.05;;;4.80;65.20;;;;;;5111682;28;20166;-64
2022/03/13 12:28:58;;;;;;;7.50;6.70;;;4.80;65.20;;;;;;5080578;28;20078;-63
2022/03/13 12:31:26;;;;;;;6.85;4.40;;;4.80;65.40;;;;;;5114685;28;20076;-63
2022/03/13 12:33:54;;;;;;;8.95;6.53;;;4.70;65.40;;;;;;5104940;28;20467;-62
2022/03/13 12:36:23;;;;;;;6.85;5.00;;;4.70;65.80;;;;;;5112026;28;20046;-63
2022/03/13 12:38:53;;;;;;;8.25;6.30;;;4.70;65.70;;;;;;5085886;28;20544;-63
2022/03/13 12:41:21;;;;;;;7.00;4.78;;;4.70;65.90;;;;;;5111525;28;20513;-62
2022/03/13 12:44:17;;;;;;;9.35;6.43;;;4.60;66.50;;;;;;5113677;28;20204;-63
2022/03/13 12:46:43;;;;;;;7.97;6.20;;;4.60;65.70;;;;;;5105850;28;20492;-63
2022/03/13 12:49:16;;;;;;;8.57;4.85;;;4.70;65.50;;;;;;5095302;28;20032;-63
2022/03/13 12:51:46;;;;;;;8.68;7.20;;;4.60;65.40;;;;;;5106901;28;20058;-63
2022/03/13 12:54:15;;;;;;;9.68;7.15;;;4.70;65.50;;;;;;5107110;28;20104;-63
2022/03/13 12:56:49;;;;;;;8.48;4.80;;;4.70;65.70;;;;;;5105708;28;20444;-63
2022/03/13 12:59:36;;;;;;;8.23;6.15;;;4.60;65.60;;;;;;5114223;28;20559;-63